Time;durP1;ratioP1;P1;durP2;ratioP2;P2;SDS_P1;SDS_P2;PMS_P1;PMS_P2;Temp;Humidity;BMP_temperature;BMP_pressure;BME280_temperature;BME280_humidity;BME280_pressure;Samples;Min_cycle;Max_cycle;Signal;HPM_P1;HPM_P2
2022/10/10 00:00:50;;;;;;;9.45;4.50;;;;;;;;;;5001576;28;88164;-70
2022/10/10 00:03:17;;;;;;;10.57;4.65;;;;;;;;;;5016301;28;89749;-70
2022/10/10 00:05:43;;;;;;;9.95;4.50;;;;;;;;;;5018265;28;89154;-71
2022/10/10 00:08:10;;;;;;;7.30;4.40;;;;;;;;;;4997672;28;90158;-70
2022/10/10 00:10:36;;;;;;;8.18;4.15;;;;;;;;;;5000897;28;89004;-70
2022/10/10 00:13:03;;;;;;;9.55;4.50;;;;;;;;;;5012800;28;89263;-71
2022/10/10 00:15:30;;;;;;;6.57;4.68;;;;;;;;;;4999511;28;88738;-70
2022/10/10 00:17:56;;;;;;;11.25;4.65;;;;;;;;;;5010352;28;89047;-70
2022/10/10 00:20:22;;;;;;;11.00;4.45;;;;;;;;;;5010321;28;88258;-70
2022/10/10 00:22:49;;;;;;;12.50;4.40;;;;;;;;;;5001493;28;88988;-70
2022/10/10 00:25:15;;;;;;;9.45;4.25;;;;;;;;;;4996503;28;88428;-70
2022/10/10 00:27:41;;;;;;;11.68;4.53;;;;;;;;;;5011722;28;88495;-70
2022/10/10 00:30:08;;;;;;;6.90;4.40;;;;;;;;;;5001809;28;89336;-70
2022/10/10 00:32:35;;;;;;;7.25;4.63;;;;;;;;;;5013639;28;89190;-69
2022/10/10 00:35:01;;;;;;;6.82;4.35;;;;;;;;;;5016709;28;89467;-71
2022/10/10 00:37:27;;;;;;;8.95;4.35;;;;;;;;;;5008889;28;88954;-70
2022/10/10 00:39:54;;;;;;;10.90;4.72;;;;;;;;;;5002276;28;88063;-70
2022/10/10 00:42:20;;;;;;;6.22;4.40;;;;;;;;;;5008981;28;89994;-70
2022/10/10 00:45:06;;;;;;;7.20;4.43;;;;;;;;;;5015868;28;89799;-70
2022/10/10 00:47:32;;;;;;;7.70;4.35;;;;;;;;;;5002062;28;88941;-71
2022/10/10 00:49:59;;;;;;;6.95;4.07;;;;;;;;;;5019960;28;88693;-71
2022/10/10 00:52:25;;;;;;;5.57;4.10;;;;;;;;;;5015343;28;90452;-71
2022/10/10 00:54:51;;;;;;;8.75;4.28;;;;;;;;;;5004842;28;88822;-71
2022/10/10 00:57:17;;;;;;;8.45;3.90;;;;;;;;;;5003214;28;91855;-71
2022/10/10 00:59:44;;;;;;;9.95;4.50;;;;;;;;;;5014894;28;88051;-71
2022/10/10 01:02:11;;;;;;;11.60;4.57;;;;;;;;;;5007609;28;89466;-70
2022/10/10 01:04:41;;;;;;;9.13;4.30;;;;;;;;;;5004502;28;88919;-70
2022/10/10 01:07:16;;;;;;;6.68;4.43;;;;;;;;;;4999465;28;88077;-70
2022/10/10 01:09:43;;;;;;;8.20;4.45;;;;;;;;;;5000491;28;89051;-70
2022/10/10 01:12:12;;;;;;;8.13;4.43;;;;;;;;;;5015350;28;89440;-70
2022/10/10 01:14:38;;;;;;;7.78;4.40;;;;;;;;;;4998955;28;89359;-70
2022/10/10 01:17:19;;;;;;;7.95;3.85;;;;;;;;;;4998662;28;88994;-70
2022/10/10 01:19:54;;;;;;;11.80;4.93;;;;;;;;;;5007849;28;88260;-70
2022/10/10 01:22:30;;;;;;;12.93;4.18;;;;;;;;;;5011755;28;88786;-70
2022/10/10 01:25:11;;;;;;;7.85;4.22;;;;;;;;;;5006309;28;89158;-70
2022/10/10 01:27:46;;;;;;;9.02;4.60;;;;;;;;;;5012414;28;91193;-69
2022/10/10 01:30:14;;;;;;;12.57;4.63;;;;;;;;;;5014337;28;88840;-70
2022/10/10 01:33:00;;;;;;;8.82;5.10;;;;;;;;;;5002136;28;89023;-70
2022/10/10 01:35:26;;;;;;;6.68;3.97;;;;;;;;;;5015005;28;88164;-70
2022/10/10 01:37:58;;;;;;;9.88;4.70;;;;;;;;;;4996736;28;90119;-70
2022/10/10 01:40:25;;;;;;;7.40;4.45;;;;;;;;;;5008808;28;87772;-70
2022/10/10 01:42:56;;;;;;;7.72;4.43;;;;;;;;;;4999205;28;90072;-71
2022/10/10 01:45:22;;;;;;;7.88;4.10;;;;;;;;;;5014999;28;89363;-70
2022/10/10 01:47:50;;;;;;;12.50;4.53;;;;;;;;;;4995584;28;88831;-70
2022/10/10 01:50:18;;;;;;;8.90;4.95;;;;;;;;;;5007087;28;89498;-70
2022/10/10 01:52:44;;;;;;;7.47;4.38;;;;;;;;;;4999461;28;89346;-70
2022/10/10 01:55:29;;;;;;;10.93;5.25;;;;;;;;;;5011141;28;88286;-70
2022/10/10 01:58:01;;;;;;;6.70;4.05;;;;;;;;;;5008467;28;89045;-70
2022/10/10 02:00:29;;;;;;;13.75;4.53;;;;;;;;;;5013575;28;88500;-70
2022/10/10 02:03:04;;;;;;;12.50;4.95;;;;;;;;;;5017765;28;88759;-70
2022/10/10 02:05:51;;;;;;;11.57;4.28;;;;;;;;;;5015485;28;88515;-70
2022/10/10 02:08:20;;;;;;;10.95;4.30;;;;;;;;;;4999239;28;88389;-72
2022/10/10 02:10:48;;;;;;;8.57;4.65;;;;;;;;;;5004988;28;88823;-70
2022/10/10 02:13:15;;;;;;;7.18;4.22;;;;;;;;;;5011563;28;90971;-70
2022/10/10 02:15:44;;;;;;;7.45;4.10;;;;;;;;;;5012277;28;88083;-70
2022/10/10 02:18:12;;;;;;;6.28;4.38;;;;;;;;;;5005088;28;89014;-70
2022/10/10 02:20:39;;;;;;;9.25;4.75;;;;;;;;;;4999698;28;88620;-70
2022/10/10 02:23:06;;;;;;;4.93;4.10;;;;;;;;;;5007780;28;89048;-70
2022/10/10 02:25:35;;;;;;;7.88;4.53;;;;;;;;;;5007742;28;88993;-70
2022/10/10 02:28:05;;;;;;;10.13;5.07;;;;;;;;;;5003134;28;88234;-70
2022/10/10 02:30:34;;;;;;;5.00;3.90;;;;;;;;;;5000465;28;89266;-71
2022/10/10 02:33:01;;;;;;;6.22;4.60;;;;;;;;;;5017760;28;88966;-71
2022/10/10 02:35:30;;;;;;;9.57;4.35;;;;;;;;;;5014604;28;88366;-70
2022/10/10 02:37:58;;;;;;;7.78;4.50;;;;;;;;;;4998228;28;90070;-70
2022/10/10 02:40:27;;;;;;;11.18;4.55;;;;;;;;;;5001595;28;89342;-71
2022/10/10 02:42:54;;;;;;;8.90;5.10;;;;;;;;;;5015512;28;88895;-71
2022/10/10 02:45:21;;;;;;;9.23;5.00;;;;;;;;;;5016288;28;88931;-71
2022/10/10 02:47:47;;;;;;;8.10;4.47;;;;;;;;;;4997606;28;88015;-71
2022/10/10 02:50:13;;;;;;;12.63;4.72;;;;;;;;;;5010618;28;88758;-71
2022/10/10 02:52:40;;;;;;;9.85;4.38;;;;;;;;;;5000591;28;89109;-71
2022/10/10 02:55:06;;;;;;;11.98;5.70;;;;;;;;;;5002499;28;87822;-70
2022/10/10 02:57:32;;;;;;;8.00;5.00;;;;;;;;;;5016580;28;88487;-70
2022/10/10 02:59:59;;;;;;;7.93;4.68;;;;;;;;;;5005491;28;88989;-71
2022/10/10 03:02:26;;;;;;;8.10;4.43;;;;;;;;;;5017870;28;88944;-71
2022/10/10 03:04:52;;;;;;;11.55;4.72;;;;;;;;;;5017852;28;89075;-70
2022/10/10 03:07:18;;;;;;;9.88;4.40;;;;;;;;;;5001015;28;90165;-71
2022/10/10 03:09:45;;;;;;;7.55;4.60;;;;;;;;;;5007469;28;88745;-71
2022/10/10 03:12:11;;;;;;;10.70;5.35;;;;;;;;;;5011435;28;89332;-70
2022/10/10 03:14:38;;;;;;;8.27;4.85;;;;;;;;;;4998440;28;88209;-71
2022/10/10 03:17:04;;;;;;;6.95;4.78;;;;;;;;;;5016973;28;88834;-71
2022/10/10 03:19:30;;;;;;;6.82;4.65;;;;;;;;;;5001402;28;88307;-71
2022/10/10 03:21:56;;;;;;;11.10;4.85;;;;;;;;;;5008230;28;88162;-70
2022/10/10 03:24:22;;;;;;;8.07;4.95;;;;;;;;;;5010819;28;88784;-71
2022/10/10 03:26:49;;;;;;;9.82;5.10;;;;;;;;;;5017879;28;88921;-70
2022/10/10 03:29:15;;;;;;;10.88;5.57;;;;;;;;;;5009904;28;89504;-70
2022/10/10 03:31:41;;;;;;;8.32;5.47;;;;;;;;;;5009188;28;88990;-71
2022/10/10 03:34:07;;;;;;;7.55;4.80;;;;;;;;;;5008222;28;88327;-72
2022/10/10 03:36:34;;;;;;;7.03;4.93;;;;;;;;;;5005816;28;88722;-71
2022/10/10 03:39:00;;;;;;;13.23;5.18;;;;;;;;;;5006493;28;89000;-70
2022/10/10 03:41:27;;;;;;;12.63;5.90;;;;;;;;;;5015836;28;88069;-70
2022/10/10 03:43:53;;;;;;;9.45;5.57;;;;;;;;;;5011676;28;90463;-70
2022/10/10 03:46:19;;;;;;;6.55;5.28;;;;;;;;;;4999660;28;88225;-70
2022/10/10 03:48:46;;;;;;;6.53;5.10;;;;;;;;;;5012639;28;88798;-70
2022/10/10 03:51:12;;;;;;;9.80;5.75;;;;;;;;;;5007141;28;89756;-71
2022/10/10 03:53:38;;;;;;;13.70;5.40;;;;;;;;;;5015383;28;88473;-70
2022/10/10 03:56:05;;;;;;;13.85;5.22;;;;;;;;;;5004261;28;88806;-71
2022/10/10 03:58:31;;;;;;;8.93;5.43;;;;;;;;;;5010901;28;88997;-71
2022/10/10 04:00:58;;;;;;;12.52;5.72;;;;;;;;;;5015094;28;88354;-71
2022/10/10 04:03:25;;;;;;;10.88;5.65;;;;;;;;;;5002034;28;89926;-71
2022/10/10 04:05:51;;;;;;;10.10;5.40;;;;;;;;;;5003050;28;90097;-71
2022/10/10 04:08:18;;;;;;;15.07;5.07;;;;;;;;;;4997699;28;88723;-71
2022/10/10 04:10:47;;;;;;;12.07;5.43;;;;;;;;;;5010754;28;88950;-70
2022/10/10 04:13:14;;;;;;;11.77;5.70;;;;;;;;;;5000813;28;88467;-71
2022/10/10 04:15:40;;;;;;;7.50;5.32;;;;;;;;;;5007266;28;89091;-71
2022/10/10 04:18:06;;;;;;;12.55;5.85;;;;;;;;;;5007282;28;89220;-72
2022/10/10 04:20:32;;;;;;;11.02;5.50;;;;;;;;;;4996691;28;88147;-71
2022/10/10 04:22:59;;;;;;;14.32;5.85;;;;;;;;;;4999499;28;89315;-71
2022/10/10 04:25:25;;;;;;;11.27;5.50;;;;;;;;;;5001120;28;88979;-71
2022/10/10 04:27:51;;;;;;;11.93;5.72;;;;;;;;;;5000347;28;88064;-71
2022/10/10 04:30:22;;;;;;;15.40;5.50;;;;;;;;;;5001017;28;89320;-70
2022/10/10 04:32:48;;;;;;;12.00;6.13;;;;;;;;;;5006690;28;89407;-71
2022/10/10 04:35:15;;;;;;;8.30;5.35;;;;;;;;;;5002451;28;88051;-70
2022/10/10 04:37:41;;;;;;;10.60;5.53;;;;;;;;;;5005415;28;89010;-70
2022/10/10 04:40:08;;;;;;;8.30;5.88;;;;;;;;;;5014383;28;88846;-71
2022/10/10 04:42:34;;;;;;;10.32;5.90;;;;;;;;;;5016946;28;89443;-71
2022/10/10 04:45:00;;;;;;;9.52;5.57;;;;;;;;;;5009620;28;89058;-70
2022/10/10 04:47:26;;;;;;;11.43;5.50;;;;;;;;;;5015007;28;88003;-70
2022/10/10 04:49:53;;;;;;;10.13;5.50;;;;;;;;;;5018533;28;89129;-70
2022/10/10 04:52:19;;;;;;;10.90;6.00;;;;;;;;;;5006633;28;88677;-70
2022/10/10 04:54:45;;;;;;;12.52;5.93;;;;;;;;;;5012387;28;88733;-69
2022/10/10 04:57:12;;;;;;;16.15;6.22;;;;;;;;;;5012362;28;88677;-71
2022/10/10 04:59:38;;;;;;;9.45;6.00;;;;;;;;;;4997590;28;88260;-71
2022/10/10 05:02:04;;;;;;;11.93;5.95;;;;;;;;;;5009871;28;88700;-71
2022/10/10 05:04:30;;;;;;;9.95;5.97;;;;;;;;;;5012909;28;91706;-71
2022/10/10 05:06:57;;;;;;;7.75;5.93;;;;;;;;;;5004623;28;87989;-71
2022/10/10 05:09:23;;;;;;;15.32;6.38;;;;;;;;;;5005915;28;88752;-71
2022/10/10 05:11:49;;;;;;;10.35;5.72;;;;;;;;;;5010993;28;89284;-71
2022/10/10 05:14:15;;;;;;;10.45;5.68;;;;;;;;;;5017697;28;88726;-70
2022/10/10 05:16:41;;;;;;;20.50;6.20;;;;;;;;;;5015250;28;89044;-70
2022/10/10 05:19:08;;;;;;;9.45;5.50;;;;;;;;;;5014451;28;88679;-70
2022/10/10 05:21:34;;;;;;;10.85;6.28;;;;;;;;;;5013670;28;89074;-70
2022/10/10 05:24:01;;;;;;;14.05;6.40;;;;;;;;;;5017291;28;88956;-70
2022/10/10 05:26:27;;;;;;;17.50;6.40;;;;;;;;;;5005646;28;88058;-70
2022/10/10 05:28:53;;;;;;;10.45;6.25;;;;;;;;;;5014567;28;88857;-72
2022/10/10 05:31:19;;;;;;;16.17;7.40;;;;;;;;;;5016408;28;89150;-71
2022/10/10 05:33:46;;;;;;;17.25;6.70;;;;;;;;;;5009107;28;89857;-70
2022/10/10 05:36:13;;;;;;;13.07;9.35;;;;;;;;;;5010706;28;89006;-71
2022/10/10 05:38:40;;;;;;;17.40;9.70;;;;;;;;;;5017292;28;88825;-71
2022/10/10 05:41:06;;;;;;;17.35;9.23;;;;;;;;;;5019602;28;88819;-71
2022/10/10 05:43:34;;;;;;;14.35;7.90;;;;;;;;;;5020348;28;88927;-70
2022/10/10 05:46:00;;;;;;;15.32;7.00;;;;;;;;;;5008824;28;87846;-72
2022/10/10 05:48:27;;;;;;;14.30;5.95;;;;;;;;;;5008664;28;88136;-71
2022/10/10 05:50:55;;;;;;;9.88;6.15;;;;;;;;;;5017755;28;89026;-72
2022/10/10 05:53:22;;;;;;;11.73;6.25;;;;;;;;;;5011371;28;89590;-72
2022/10/10 05:55:49;;;;;;;12.23;5.75;;;;;;;;;;5004676;28;89004;-70
2022/10/10 05:58:15;;;;;;;17.90;6.32;;;;;;;;;;5020387;28;88010;-71
2022/10/10 06:00:42;;;;;;;14.30;6.22;;;;;;;;;;5004934;28;88824;-71
2022/10/10 06:03:13;;;;;;;13.32;5.95;;;;;;;;;;5010180;28;89273;-71
2022/10/10 06:05:39;;;;;;;;;;;;;;;;;;5004121;28;88279;-71
2022/10/10 06:08:06;;;;;;;7.75;5.30;;;;;;;;;;5002097;28;119021;-70
2022/10/10 06:10:39;;;;;;;8.55;5.72;;;;;;;;;;5001403;28;89346;-71
2022/10/10 06:13:05;;;;;;;12.52;5.80;;;;;;;;;;5015381;28;88072;-71
2022/10/10 06:15:31;;;;;;;14.88;6.57;;;;;;;;;;5008917;28;89714;-70
2022/10/10 06:17:57;;;;;;;17.90;6.30;;;;;;;;;;5015173;28;89001;-71
2022/10/10 06:20:24;;;;;;;16.77;5.93;;;;;;;;;;5017279;28;89487;-70
2022/10/10 06:22:50;;;;;;;15.15;5.68;;;;;;;;;;5004610;28;88993;-70
2022/10/10 06:25:17;;;;;;;11.60;5.75;;;;;;;;;;4996727;28;88316;-70
2022/10/10 06:28:03;;;;;;;19.25;7.35;;;;;;;;;;4999941;28;88404;-71
2022/10/10 06:30:30;;;;;;;18.48;8.10;;;;;;;;;;5007442;28;89815;-71
2022/10/10 06:32:57;;;;;;;22.77;11.00;;;;;;;;;;5005489;28;88129;-70
2022/10/10 06:35:24;;;;;;;26.60;8.77;;;;;;;;;;5012132;28;89557;-70
2022/10/10 06:37:50;;;;;;;27.83;10.77;;;;;;;;;;5011275;28;89013;-70
2022/10/10 06:40:16;;;;;;;25.70;10.82;;;;;;;;;;5008465;28;92591;-71
2022/10/10 06:42:43;;;;;;;28.88;10.52;;;;;;;;;;4998311;28;89733;-71
2022/10/10 06:45:09;;;;;;;28.63;8.55;;;;;;;;;;5001094;28;90052;-71
2022/10/10 06:47:35;;;;;;;19.17;7.90;;;;;;;;;;5013793;28;88845;-71
2022/10/10 06:50:02;;;;;;;8.73;6.47;;;;;;;;;;5001604;28;89308;-71
2022/10/10 06:52:28;;;;;;;10.35;6.68;;;;;;;;;;5006857;28;88135;-71
2022/10/10 06:54:54;;;;;;;15.20;6.43;;;;;;;;;;5009303;28;88732;-70
2022/10/10 06:57:20;;;;;;;12.40;6.40;;;;;;;;;;5015460;28;89037;-71
2022/10/10 06:59:46;;;;;;;10.77;6.60;;;;;;;;;;5017354;28;87818;-70
2022/10/10 07:02:13;;;;;;;10.95;6.18;;;;;;;;;;5011128;28;88959;-71
2022/10/10 07:04:39;;;;;;;13.50;6.43;;;;;;;;;;5017014;28;88055;-71
2022/10/10 07:07:05;;;;;;;16.10;5.90;;;;;;;;;;5000954;28;90953;-71
2022/10/10 07:09:32;;;;;;;14.02;6.95;;;;;;;;;;5016199;28;89300;-70
2022/10/10 07:11:58;;;;;;;11.38;6.22;;;;;;;;;;5017038;28;88040;-71
2022/10/10 07:14:24;;;;;;;11.20;5.78;;;;;;;;;;5016282;28;88837;-71
2022/10/10 07:16:50;;;;;;;11.23;5.43;;;;;;;;;;5007678;28;88186;-70
2022/10/10 07:19:17;;;;;;;16.77;6.47;;;;;;;;;;4998760;28;87992;-70
2022/10/10 07:21:44;;;;;;;12.10;5.55;;;;;;;;;;5016484;28;88781;-70
2022/10/10 07:24:10;;;;;;;15.05;6.25;;;;;;;;;;5001793;28;87883;-70
2022/10/10 07:26:37;;;;;;;13.90;5.85;;;;;;;;;;5009457;28;88098;-72
2022/10/10 07:29:06;;;;;;;9.75;6.07;;;;;;;;;;4996979;28;88996;-72
2022/10/10 07:31:32;;;;;;;11.15;6.30;;;;;;;;;;5010100;28;89878;-71
2022/10/10 07:33:59;;;;;;;17.88;7.03;;;;;;;;;;5004912;28;93389;-71
2022/10/10 07:36:25;;;;;;;16.75;6.32;;;;;;;;;;5012598;28;90223;-72
2022/10/10 07:38:51;;;;;;;12.38;6.03;;;;;;;;;;4997475;28;88536;-71
2022/10/10 07:41:18;;;;;;;12.82;6.28;;;;;;;;;;5012363;28;88916;-71
2022/10/10 07:43:45;;;;;;;12.70;6.80;;;;;;;;;;5015271;28;89294;-71
2022/10/10 07:46:15;;;;;;;18.80;6.20;;;;;;;;;;5004996;28;89129;-70
2022/10/10 07:48:41;;;;;;;11.38;6.30;;;;;;;;;;5017020;28;88673;-71
2022/10/10 07:51:08;;;;;;;10.45;5.45;;;;;;;;;;5018613;28;87991;-71
2022/10/10 07:53:34;;;;;;;16.15;7.15;;;;;;;;;;5011276;28;89106;-70
2022/10/10 07:56:04;;;;;;;14.40;6.30;;;;;;;;;;4998010;28;89670;-71
2022/10/10 07:58:31;;;;;;;16.40;6.87;;;;;;;;;;4997583;28;88035;-71
2022/10/10 08:01:02;;;;;;;18.65;6.75;;;;;;;;;;4997282;28;88835;-71
2022/10/10 08:03:28;;;;;;;;;;;;;;;;;;5013113;28;89056;-70
2022/10/10 08:05:54;;;;;;;13.38;6.80;;;;;;;;;;5017928;28;118085;-70
2022/10/10 08:08:21;;;;;;;10.23;6.35;;;;;;;;;;5017122;28;89729;-71
2022/10/10 08:10:47;;;;;;;14.32;6.43;;;;;;;;;;5008353;28;89693;-70
2022/10/10 08:13:13;;;;;;;11.50;6.18;;;;;;;;;;5016805;28;89302;-72
2022/10/10 08:15:40;;;;;;;14.32;6.40;;;;;;;;;;5018647;28;89912;-70
2022/10/10 08:18:06;;;;;;;14.32;6.47;;;;;;;;;;5010819;28;88066;-70
2022/10/10 08:20:32;;;;;;;18.88;6.68;;;;;;;;;;4995222;28;90317;-70
2022/10/10 08:22:59;;;;;;;16.40;6.78;;;;;;;;;;5005626;28;89002;-70
2022/10/10 08:25:25;;;;;;;18.13;6.95;;;;;;;;;;5002563;28;88127;-74
2022/10/10 08:27:51;;;;;;;15.38;6.28;;;;;;;;;;5009569;28;89876;-72
2022/10/10 08:30:18;;;;;;;10.50;6.85;;;;;;;;;;5005922;28;88199;-71
2022/10/10 08:32:44;;;;;;;10.93;7.85;;;;;;;;;;4997752;28;89089;-72
2022/10/10 08:35:10;;;;;;;11.75;6.93;;;;;;;;;;4998229;28;89038;-72
2022/10/10 08:37:36;;;;;;;9.57;6.60;;;;;;;;;;4997669;28;88001;-72
2022/10/10 08:40:03;;;;;;;14.13;6.75;;;;;;;;;;4999434;28;88156;-71
2022/10/10 08:42:32;;;;;;;18.52;6.15;;;;;;;;;;5002865;28;89014;-72
2022/10/10 08:45:01;;;;;;;12.68;5.88;;;;;;;;;;5004658;28;89557;-72
2022/10/10 08:47:40;;;;;;;21.63;6.60;;;;;;;;;;5019267;28;89542;-72
2022/10/10 08:50:07;;;;;;;19.98;6.03;;;;;;;;;;5016413;28;88132;-72
2022/10/10 08:52:51;;;;;;;15.55;5.88;;;;;;;;;;5000948;28;88765;-72
2022/10/10 08:55:21;;;;;;;12.07;5.65;;;;;;;;;;4996798;28;90126;-72
2022/10/10 08:57:56;;;;;;;14.63;5.70;;;;;;;;;;5004234;28;88031;-73
2022/10/10 09:00:24;;;;;;;19.08;6.07;;;;;;;;;;4999906;28;88789;-72
2022/10/10 09:02:52;;;;;;;12.98;5.32;;;;;;;;;;4998774;28;88235;-72
2022/10/10 09:05:26;;;;;;;9.25;5.05;;;;;;;;;;4998465;28;88086;-71
2022/10/10 09:08:13;;;;;;;10.50;4.85;;;;;;;;;;4999779;28;89129;-72
2022/10/10 09:10:47;;;;;;;12.80;5.68;;;;;;;;;;5016957;28;90090;-73
2022/10/10 09:13:21;;;;;;;14.15;5.05;;;;;;;;;;5020596;28;89655;-71
2022/10/10 09:15:58;;;;;;;19.75;6.30;;;;;;;;;;5007288;28;89033;-72
2022/10/10 09:18:39;;;;;;;13.52;5.55;;;;;;;;;;5003044;28;88128;-71
2022/10/10 09:21:11;;;;;;;9.85;5.15;;;;;;;;;;5000620;28;88823;-70
2022/10/10 09:23:52;;;;;;;16.10;5.75;;;;;;;;;;5012268;28;89001;-70
2022/10/10 09:26:21;;;;;;;16.58;5.45;;;;;;;;;;5004117;28;88273;-70
2022/10/10 09:28:51;;;;;;;13.23;5.60;;;;;;;;;;5019832;28;88820;-70
2022/10/10 09:31:25;;;;;;;20.30;5.47;;;;;;;;;;5012052;28;88039;-68
2022/10/10 09:33:56;;;;;;;20.85;6.40;;;;;;;;;;5019368;28;88558;-69
2022/10/10 09:36:24;;;;;;;16.42;6.63;;;;;;;;;;5001877;28;89729;-70
2022/10/10 09:38:59;;;;;;;15.80;5.88;;;;;;;;;;5008647;28;88889;-69
2022/10/10 09:41:37;;;;;;;12.50;6.22;;;;;;;;;;5012991;28;89096;-69
2022/10/10 09:44:08;;;;;;;17.75;6.03;;;;;;;;;;5010932;28;88962;-69
2022/10/10 09:46:35;;;;;;;15.75;6.20;;;;;;;;;;5012046;28;89406;-70
2022/10/10 09:49:02;;;;;;;21.88;10.82;;;;;;;;;;5010393;28;88787;-69
2022/10/10 09:51:28;;;;;;;26.13;7.00;;;;;;;;;;5010469;28;89109;-70
2022/10/10 09:53:54;;;;;;;21.52;9.82;;;;;;;;;;5010566;28;90022;-69
2022/10/10 09:56:26;;;;;;;18.38;7.45;;;;;;;;;;5016373;28;89248;-69
2022/10/10 09:58:53;;;;;;;12.57;5.95;;;;;;;;;;5010244;28;88010;-69
2022/10/10 10:01:21;;;;;;;12.30;5.70;;;;;;;;;;5009125;28;88821;-70
2022/10/10 10:04:06;;;;;;;15.73;6.50;;;;;;;;;;5006739;28;90631;-70
2022/10/10 10:07:01;;;;;;;17.52;5.93;;;;;;;;;;5002024;28;88483;-69
2022/10/10 10:09:28;;;;;;;18.15;5.97;;;;;;;;;;5001734;28;88966;-71
2022/10/10 10:11:55;;;;;;;12.93;6.25;;;;;;;;;;5014742;28;88869;-70
2022/10/10 10:14:24;;;;;;;15.82;6.32;;;;;;;;;;5009659;28;90689;-70
2022/10/10 10:16:51;;;;;;;14.97;5.83;;;;;;;;;;5020138;28;88838;-70
2022/10/10 10:19:30;;;;;;;16.10;6.22;;;;;;;;;;5002947;28;87916;-70
2022/10/10 10:21:57;;;;;;;13.60;5.50;;;;;;;;;;5014219;28;88653;-70
2022/10/10 10:24:28;;;;;;;13.80;6.10;;;;;;;;;;5018953;28;89029;-70
2022/10/10 10:26:54;;;;;;;15.73;5.95;;;;;;;;;;5019554;28;88741;-69
2022/10/10 10:29:26;;;;;;;19.40;5.95;;;;;;;;;;5006050;28;89470;-70
2022/10/10 10:32:22;;;;;;;15.55;5.80;;;;;;;;;;5037327;28;89131;-70
2022/10/10 10:34:48;;;;;;;12.60;6.38;;;;;;;;;;5024738;27;88132;-70
2022/10/10 10:37:14;;;;;;;18.25;6.15;;;;;;;;;;4999456;28;87954;-70
2022/10/10 10:39:46;;;;;;;14.95;6.07;;;;;;;;;;5003655;28;89017;-69
2022/10/10 10:42:33;;;;;;;13.57;5.57;;;;;;;;;;5007049;28;90171;-70
2022/10/10 10:45:05;;;;;;;7.93;5.10;;;;;;;;;;5019841;28;88299;-69
2022/10/10 10:47:40;;;;;;;18.92;6.07;;;;;;;;;;4999092;28;88109;-70
2022/10/10 10:50:30;;;;;;;13.68;5.97;;;;;;;;;;4999719;28;91118;-70
2022/10/10 10:52:58;;;;;;;11.80;5.45;;;;;;;;;;4999815;28;89747;-70
2022/10/10 10:55:25;;;;;;;12.70;6.20;;;;;;;;;;4998954;28;88188;-70
2022/10/10 10:57:51;;;;;;;18.83;5.75;;;;;;;;;;5000798;28;88810;-71
2022/10/10 11:00:44;;;;;;;27.05;10.68;;;;;;;;;;4998665;28;88698;-70
2022/10/10 11:03:54;;;;;;;10.13;5.93;;;;;;;;;;5000368;28;90653;-71
2022/10/10 11:06:49;;;;;;;16.13;5.75;;;;;;;;;;5011719;28;88589;-71
2022/10/10 11:09:41;;;;;;;11.98;5.43;;;;;;;;;;5013384;28;88087;-70
2022/10/10 11:12:25;;;;;;;13.25;5.97;;;;;;;;;;5003909;28;89897;-72
2022/10/10 11:15:10;;;;;;;21.38;6.30;;;;;;;;;;5013515;28;88987;-71
2022/10/10 11:17:46;;;;;;;24.67;6.63;;;;;;;;;;5010275;28;88155;-71
2022/10/10 11:20:20;;;;;;;13.48;6.25;;;;;;;;;;5004634;28;89102;-71
2022/10/10 11:23:15;;;;;;;16.75;6.78;;;;;;;;;;5006545;28;92346;-71
2022/10/10 11:25:44;;;;;;;19.10;6.70;;;;;;;;;;5013494;28;88426;-71
2022/10/10 11:28:19;;;;;;;14.90;6.28;;;;;;;;;;5021998;28;89133;-70
2022/10/10 11:30:57;;;;;;;14.07;6.07;;;;;;;;;;5013035;28;88527;-71
2022/10/10 11:33:29;;;;;;;15.93;6.30;;;;;;;;;;5002770;28;88767;-70
2022/10/10 11:36:04;;;;;;;19.10;6.60;;;;;;;;;;5014460;28;88952;-70
2022/10/10 11:38:33;;;;;;;14.25;6.15;;;;;;;;;;5002973;28;87934;-71
2022/10/10 11:41:20;;;;;;;12.97;6.93;;;;;;;;;;5013097;28;89097;-71
2022/10/10 11:43:50;;;;;;;16.15;5.75;;;;;;;;;;5009730;28;89367;-71
2022/10/10 11:46:24;;;;;;;14.32;6.50;;;;;;;;;;5003115;28;88990;-71
2022/10/10 11:49:09;;;;;;;18.45;5.47;;;;;;;;;;5011928;28;89889;-71
2022/10/10 11:51:54;;;;;;;16.00;6.13;;;;;;;;;;5020299;28;89040;-70
2022/10/10 11:54:39;;;;;;;15.90;6.53;;;;;;;;;;4998685;28;88740;-70
2022/10/10 11:57:14;;;;;;;24.65;6.20;;;;;;;;;;4998590;28;88964;-71
2022/10/10 11:59:43;;;;;;;19.13;6.40;;;;;;;;;;5006613;28;88162;-70
2022/10/10 12:02:16;;;;;;;17.75;6.03;;;;;;;;;;4998234;28;88896;-70
2022/10/10 12:04:42;;;;;;;15.70;6.45;;;;;;;;;;5014345;28;89124;-70
2022/10/10 12:07:34;;;;;;;22.08;6.13;;;;;;;;;;5012536;28;88793;-71
2022/10/10 12:10:24;;;;;;;20.10;6.85;;;;;;;;;;4999868;28;89235;-71
2022/10/10 12:12:53;;;;;;;15.73;6.25;;;;;;;;;;4992004;28;90073;-71
2022/10/10 12:15:24;;;;;;;18.45;7.20;;;;;;;;;;5012061;28;88169;-71
2022/10/10 12:17:51;;;;;;;25.98;7.55;;;;;;;;;;4996254;28;89034;-71
2022/10/10 12:20:20;;;;;;;23.40;7.65;;;;;;;;;;4997916;28;88124;-70
2022/10/10 12:23:04;;;;;;;18.38;7.78;;;;;;;;;;4998230;28;88174;-72
2022/10/10 12:25:35;;;;;;;26.77;9.70;;;;;;;;;;5001219;28;89884;-70
2022/10/10 12:28:03;;;;;;;33.20;10.63;;;;;;;;;;5006553;28;88386;-71
2022/10/10 12:30:30;;;;;;;22.90;9.90;;;;;;;;;;5006747;28;89315;-71
2022/10/10 12:32:56;;;;;;;31.90;10.90;;;;;;;;;;5008548;28;89063;-71
2022/10/10 12:35:31;;;;;;;32.03;10.80;;;;;;;;;;5001498;28;88971;-71
2022/10/10 12:38:20;;;;;;;36.97;11.13;;;;;;;;;;5015325;28;89782;-71
2022/10/10 12:40:55;;;;;;;26.42;10.48;;;;;;;;;;4999779;28;90074;-71
2022/10/10 12:43:23;;;;;;;22.85;9.32;;;;;;;;;;4993806;28;91672;-72
2022/10/10 12:45:57;;;;;;;19.30;9.52;;;;;;;;;;5001793;28;88922;-71
2022/10/10 12:48:24;;;;;;;21.55;8.90;;;;;;;;;;5012153;28;89078;-71
2022/10/10 12:50:54;;;;;;;20.45;8.27;;;;;;;;;;5016287;28;88804;-71
2022/10/10 12:53:20;;;;;;;;;;;;;;;;;;5015930;28;89127;-71
2022/10/10 12:55:53;;;;;;;17.77;7.35;;;;;;;;;;5015651;28;87424;-72
2022/10/10 12:58:31;;;;;;;23.92;8.35;;;;;;;;;;5017692;28;89207;-71
2022/10/10 13:00:58;;;;;;;19.70;8.00;;;;;;;;;;5017404;28;88015;-71
2022/10/10 13:03:35;;;;;;;11.10;7.90;;;;;;;;;;5017667;28;91690;-72
2022/10/10 13:06:13;;;;;;;19.50;8.10;;;;;;;;;;5004570;28;89414;-72
2022/10/10 13:08:40;;;;;;;18.65;8.00;;;;;;;;;;4996777;28;88017;-71
2022/10/10 13:11:10;;;;;;;23.08;8.77;;;;;;;;;;4997479;28;88784;-72
2022/10/10 13:13:36;;;;;;;21.90;8.30;;;;;;;;;;4996781;28;89073;-71
2022/10/10 13:16:13;;;;;;;31.50;9.48;;;;;;;;;;5008968;28;88160;-71
2022/10/10 13:18:42;;;;;;;23.77;9.27;;;;;;;;;;4999571;28;88816;-71
2022/10/10 13:21:10;;;;;;;17.05;8.43;;;;;;;;;;5000742;28;88301;-70
2022/10/10 13:23:40;;;;;;;31.42;8.65;;;;;;;;;;4996391;28;88144;-70
2022/10/10 13:26:18;;;;;;;26.42;9.95;;;;;;;;;;4994680;28;89443;-71
2022/10/10 13:28:44;;;;;;;24.95;10.88;;;;;;;;;;4997497;28;88682;-71
2022/10/10 13:31:12;;;;;;;36.85;11.63;;;;;;;;;;4996143;28;89787;-71
2022/10/10 13:33:39;;;;;;;26.42;10.70;;;;;;;;;;4995845;28;89200;-71
2022/10/10 13:36:06;;;;;;;22.73;7.68;;;;;;;;;;5007556;28;90024;-71
2022/10/10 13:38:34;;;;;;;21.98;7.95;;;;;;;;;;5011431;28;88963;-71
2022/10/10 13:41:01;;;;;;;21.17;9.68;;;;;;;;;;5015614;28;89506;-71
2022/10/10 13:43:29;;;;;;;19.98;8.85;;;;;;;;;;4999755;28;88864;-71
2022/10/10 13:45:57;;;;;;;10.75;6.43;;;;;;;;;;5008895;28;88682;-71
2022/10/10 13:48:26;;;;;;;10.68;5.05;;;;;;;;;;5017113;28;88223;-71
2022/10/10 13:51:04;;;;;;;17.65;6.13;;;;;;;;;;5016752;28;89127;-71
2022/10/10 13:53:32;;;;;;;23.60;6.50;;;;;;;;;;5014978;28;92086;-72
2022/10/10 13:56:07;;;;;;;19.55;4.20;;;;;;;;;;4996040;28;88027;-71
2022/10/10 13:58:54;;;;;;;2.53;1.00;;;;;;;;;;5000226;28;89636;-71
2022/10/10 14:01:27;;;;;;;1.95;0.82;;;;;;;;;;4999929;28;88945;-72
2022/10/10 14:03:55;;;;;;;1.27;1.00;;;;;;;;;;4999380;28;88082;-72
2022/10/10 14:06:24;;;;;;;2.20;0.93;;;;;;;;;;5001521;28;89692;-72
2022/10/10 14:08:51;;;;;;;3.95;0.88;;;;;;;;;;4999977;28;89959;-71
2022/10/10 14:11:18;;;;;;;2.33;0.80;;;;;;;;;;4999525;28;88783;-72
2022/10/10 14:13:47;;;;;;;2.20;0.57;;;;;;;;;;5014238;28;88950;-72
2022/10/10 14:16:16;;;;;;;1.70;0.60;;;;;;;;;;5013470;28;88500;-72
2022/10/10 14:18:43;;;;;;;1.17;0.50;;;;;;;;;;5003620;28;88747;-72
2022/10/10 14:21:10;;;;;;;2.50;0.63;;;;;;;;;;5009474;28;88970;-72
2022/10/10 14:23:36;;;;;;;1.58;0.60;;;;;;;;;;5005341;28;87976;-72
2022/10/10 14:26:03;;;;;;;5.18;0.60;;;;;;;;;;5022994;28;88776;-71
2022/10/10 14:28:31;;;;;;;4.72;1.00;;;;;;;;;;5018570;28;88054;-72
2022/10/10 14:30:58;;;;;;;2.47;0.63;;;;;;;;;;5004836;28;89239;-72
2022/10/10 14:33:24;;;;;;;9.05;1.20;;;;;;;;;;5028726;28;89323;-72
2022/10/10 14:35:52;;;;;;;3.17;0.95;;;;;;;;;;5040602;27;87829;-72
2022/10/10 14:38:19;;;;;;;2.60;0.70;;;;;;;;;;5031417;28;88483;-73
2022/10/10 14:40:46;;;;;;;4.13;0.70;;;;;;;;;;5017705;27;89154;-73
2022/10/10 14:43:12;;;;;;;5.50;1.33;;;;;;;;;;5012146;28;89205;-73
2022/10/10 14:45:39;;;;;;;9.95;1.38;;;;;;;;;;5018650;28;89644;-72
2022/10/10 14:48:05;;;;;;;9.00;1.25;;;;;;;;;;5018139;28;89039;-72